Time;durP1;ratioP1;P1;durP2;ratioP2;P2;SDS_P1;SDS_P2;PMS_P1;PMS_P2;Temp;Humidity;BMP_temperature;BMP_pressure;BME280_temperature;BME280_humidity;BME280_pressure;Samples;Min_cycle;Max_cycle;Signal;HPM_P1;HPM_P2
2022/01/02 00:01:44;;;;;;;40.70;14.23;;;;;;;-11.96;74.09;100179.06;5077709;28;20049;-63
2022/01/02 00:04:22;;;;;;;41.00;16.35;;;;;;;-11.92;73.63;100175.13;5078185;28;20262;-62
2022/01/02 00:06:54;;;;;;;35.35;15.20;;;;;;;-11.79;73.36;100192.81;5078875;28;20501;-62
2022/01/02 00:09:32;;;;;;;40.22;17.17;;;;;;;-12.06;73.53;100130.44;5079349;28;20103;-63
2022/01/02 00:12:07;;;;;;;49.30;17.98;;;;;;;-11.69;72.88;100188.44;5078505;28;20083;-62
2022/01/02 00:14:43;;;;;;;43.25;17.63;;;;;;;-11.73;72.74;100188.25;5078990;28;20243;-62
2022/01/02 00:17:16;;;;;;;50.92;19.13;;;;;;;-12.19;72.43;100101.84;5079071;28;20056;-63
2022/01/02 00:19:53;;;;;;;50.58;18.70;;;;;;;-11.52;72.72;100162.78;5078734;28;20079;-62
2022/01/02 00:22:30;;;;;;;49.17;18.67;;;;;;;-11.42;72.13;100159.25;5079031;28;20226;-64
2022/01/02 00:25:05;;;;;;;46.47;19.83;;;;;;;-11.45;71.46;100154.88;5078858;28;20386;-62
2022/01/02 00:27:37;;;;;;;59.38;21.88;;;;;;;-11.63;71.18;100133.41;5078853;28;20524;-62
2022/01/02 00:30:09;;;;;;;51.13;22.05;;;;;;;-11.66;70.83;100101.31;5077426;28;20238;-61
2022/01/02 00:32:40;;;;;;;45.28;19.33;;;;;;;-11.26;70.58;100140.97;5075246;28;20079;-62
2022/01/02 00:35:12;;;;;;;57.38;20.45;;;;;;;-11.23;70.40;100146.22;5077479;28;20167;-62
2022/01/02 00:37:43;;;;;;;51.55;19.75;;;;;;;-11.22;70.11;100137.91;5077524;28;20092;-64
2022/01/02 00:40:16;;;;;;;49.15;19.65;;;;;;;-11.17;69.63;100131.53;5077533;28;20339;-64
2022/01/02 00:42:49;;;;;;;46.90;18.95;;;;;;;-11.22;69.54;100122.78;5077417;28;20087;-64
2022/01/02 00:45:25;;;;;;;54.63;19.73;;;;;;;-11.41;70.16;100072.72;5075061;28;20048;-65
2022/01/02 00:48:01;;;;;;;54.58;18.90;;;;;;;-10.95;70.28;100124.63;5075001;28;20330;-64
2022/01/02 00:50:39;;;;;;;59.78;24.90;;;;;;;-11.08;69.90;100057.31;5076913;28;20063;-63
2022/01/02 00:53:15;;;;;;;48.10;20.90;;;;;;;-10.72;69.59;100083.22;5077325;28;20075;-62
2022/01/02 00:55:49;;;;;;;58.42;26.02;;;;;;;-10.67;69.63;100050.69;5075804;28;20111;-63
2022/01/02 00:58:21;;;;;;;71.60;31.85;;;;;;;-10.31;68.86;100096.75;5073885;28;20052;-62
2022/01/02 01:00:53;;;;;;;74.97;29.48;;;;;;;-10.23;68.66;100075.34;5076914;28;20239;-64
2022/01/02 01:03:27;;;;;;;51.67;21.73;;;;;;;-10.15;68.61;100069.13;5077267;28;20056;-62
2022/01/02 01:06:05;;;;;;;56.00;22.05;;;;;;;-10.05;68.80;100058.81;5075168;28;20088;-64
2022/01/02 01:08:37;;;;;;;57.08;21.50;;;;;;;-10.05;68.50;100040.25;5074290;28;20230;-61
2022/01/02 01:11:09;;;;;;;60.83;25.02;;;;;;;-9.98;68.51;100038.19;5076801;28;20060;-62
2022/01/02 01:13:40;;;;;;;59.83;24.65;;;;;;;-9.85;68.31;100044.00;5074387;28;20083;-61
2022/01/02 01:16:11;;;;;;;59.05;24.17;;;;;;;-9.73;68.74;100039.69;5076935;28;20059;-64
2022/01/02 01:18:41;;;;;;;56.00;24.15;;;;;;;-9.59;68.30;100036.31;5074394;28;20067;-63
2022/01/02 01:21:14;;;;;;;61.67;25.73;;;;;;;-9.43;68.33;100022.06;5076467;28;20284;-62
2022/01/02 01:23:45;;;;;;;54.38;24.00;;;;;;;-9.34;67.99;99999.81;5076505;28;20398;-64
2022/01/02 01:26:17;;;;;;;55.28;22.60;;;;;;;-9.29;67.08;99982.38;5076769;28;20356;-62
2022/01/02 01:28:47;;;;;;;50.30;21.55;;;;;;;-9.19;68.16;99965.28;5076467;28;20071;-62
2022/01/02 01:31:18;;;;;;;53.22;21.85;;;;;;;-8.57;67.84;99973.78;5076367;28;20087;-62
2022/01/02 01:33:49;;;;;;;65.40;28.10;;;;;;;-8.25;67.11;99943.41;5074148;28;20064;-62
2022/01/02 01:36:21;;;;;;;64.63;25.70;;;;;;;-7.72;66.68;99971.50;5076027;28;20059;-63
2022/01/02 01:38:52;;;;;;;63.88;27.80;;;;;;;-7.41;66.21;99954.53;5076048;28;20103;-62
2022/01/02 01:41:29;;;;;;;48.72;22.20;;;;;;;-6.83;66.19;99950.56;5076334;28;20331;-62
2022/01/02 01:44:26;;;;;;;49.75;21.98;;;;;;;-6.65;64.82;99930.22;5073653;28;20244;-63
2022/01/02 01:46:57;;;;;;;47.63;19.02;;;;;;;-6.43;64.47;99921.94;5076037;28;20103;-61
2022/01/02 01:49:30;;;;;;;51.28;22.73;;;;;;;-6.54;63.95;99848.59;5076533;28;20067;-63
2022/01/02 01:52:03;;;;;;;55.47;21.98;;;;;;;-5.83;63.15;99942.38;5072337;28;20281;-64
2022/01/02 01:54:34;;;;;;;46.17;19.35;;;;;;;-5.88;62.79;99893.84;5076422;28;20056;-62
2022/01/02 01:57:05;;;;;;;46.08;18.95;;;;;;;-5.67;63.25;99899.81;5073980;28;20060;-63
2022/01/02 01:59:36;;;;;;;45.20;20.92;;;;;;;-5.35;63.33;99913.03;5074410;28;20052;-62
2022/01/02 02:02:07;;;;;;;45.05;19.15;;;;;;;-5.21;62.53;99895.78;5074059;28;20366;-62
2022/01/02 02:04:37;;;;;;;48.47;21.58;;;;;;;-5.15;62.65;99879.88;5076953;28;20059;-61
2022/01/02 02:07:10;;;;;;;51.20;22.67;;;;;;;-5.08;63.21;99895.47;5076857;28;20049;-62
2022/01/02 02:09:58;;;;;;;51.53;21.50;;;;;;;-4.92;63.04;99894.41;5076622;28;20071;-63
2022/01/02 02:12:29;;;;;;;60.53;24.33;;;;;;;-4.73;62.89;99893.44;5077117;28;20070;-65
2022/01/02 02:15:00;;;;;;;61.20;26.77;;;;;;;-4.67;62.79;99882.63;5070384;28;20064;-65
2022/01/02 02:17:32;;;;;;;69.50;28.48;;;;;;;-4.69;62.49;99874.03;5075812;28;20036;-64
2022/01/02 02:20:15;;;;;;;65.25;30.52;;;;;;;-4.73;62.75;99869.66;5075428;28;20108;-62
2022/01/02 02:22:52;;;;;;;76.25;32.50;;;;;;;-5.02;62.85;99836.25;5067478;28;20072;-62
2022/01/02 02:25:25;;;;;;;78.07;34.33;;;;;;;-4.85;62.91;99849.66;5073117;28;20311;-61
2022/01/02 02:27:57;;;;;;;82.60;34.45;;;;;;;-4.71;62.82;99847.63;5076490;28;20059;-62
2022/01/02 02:30:30;;;;;;;79.85;31.55;;;;;;;-4.73;62.90;99833.97;5076670;28;20288;-64
2022/01/02 02:33:02;;;;;;;71.10;30.60;;;;;;;-4.56;62.50;99827.81;5076722;28;20244;-65
2022/01/02 02:35:36;;;;;;;64.68;29.27;;;;;;;-4.40;62.39;99804.59;5021337;28;20232;-65
2022/01/02 02:38:08;;;;;;;67.75;29.63;;;;;;;-4.40;62.20;99799.50;5058639;28;20048;-65
2022/01/02 02:40:39;;;;;;;66.95;27.55;;;;;;;-4.37;62.28;99819.13;5073288;28;20053;-65
2022/01/02 02:43:24;;;;;;;65.15;28.42;;;;;;;-4.43;62.52;99807.03;5070306;28;20052;-64
2022/01/02 02:49:05;;;;;;;56.88;24.45;;;;;;;-4.37;62.37;99794.53;5051054;28;20056;-63
2022/01/02 02:51:49;;;;;;;63.40;26.10;;;;;;;-4.60;62.20;99754.56;5076311;28;20048;-64
2022/01/02 02:54:21;;;;;;;56.70;23.42;;;;;;;-4.38;62.69;99786.81;5071815;28;20060;-63
2022/01/02 02:56:58;;;;;;;46.83;21.00;;;;;;;-4.32;62.82;99768.28;5073065;28;20059;-62
2022/01/02 02:59:29;;;;;;;55.88;20.90;;;;;;;-4.28;63.00;99753.16;5073127;28;20053;-64
2022/01/02 03:02:01;;;;;;;46.63;18.48;;;;;;;-4.05;63.13;99751.38;5072032;28;20049;-63
2022/01/02 03:04:33;;;;;;;39.78;16.10;;;;;;;-3.97;62.86;99739.78;5072819;28;20064;-66
2022/01/02 03:07:05;;;;;;;42.85;16.00;;;;;;;-3.81;62.78;99737.72;5072822;28;20242;-64
2022/01/02 03:09:40;;;;;;;39.92;15.43;;;;;;;-3.77;62.65;99739.53;5072859;28;20419;-65
2022/01/02 03:12:12;;;;;;;35.60;14.38;;;;;;;-4.07;62.73;99676.47;5072794;28;20060;-62
2022/01/02 03:14:43;;;;;;;34.15;13.50;;;;;;;-3.70;62.69;99733.81;5072709;28;20056;-62
2022/01/02 03:17:13;;;;;;;27.67;11.40;;;;;;;-3.77;63.72;99729.31;5072622;28;20052;-62
2022/01/02 03:19:44;;;;;;;18.70;9.23;;;;;;;-3.85;65.18;99725.66;5072307;28;20339;-63
2022/01/02 03:22:17;;;;;;;22.38;9.90;;;;;;;-4.12;65.99;99711.16;5074153;28;20072;-64
2022/01/02 03:24:49;;;;;;;22.80;9.55;;;;;;;-4.06;66.96;99716.50;5075676;28;20299;-63
2022/01/02 03:27:20;;;;;;;19.88;10.18;;;;;;;-4.20;67.43;99699.84;5076289;28;20306;-63
2022/01/02 03:29:51;;;;;;;20.42;9.93;;;;;;;-4.11;67.72;99705.25;5075930;28;20036;-64
2022/01/02 03:32:21;;;;;;;15.45;7.25;;;;;;;-4.10;67.54;99695.91;5076005;28;20640;-61
2022/01/02 03:34:52;;;;;;;15.70;6.85;;;;;;;-4.02;67.65;99699.56;5075943;28;20084;-64
2022/01/02 03:37:28;;;;;;;17.00;6.30;;;;;;;-3.95;67.64;99692.16;5076262;28;20309;-63
2022/01/02 03:39:59;;;;;;;14.70;6.53;;;;;;;-3.88;67.71;99692.38;5075901;28;20342;-63
2022/01/02 03:42:29;;;;;;;15.00;6.10;;;;;;;-3.80;67.88;99670.50;5076246;28;20044;-64
2022/01/02 03:45:00;;;;;;;17.67;6.93;;;;;;;-3.81;67.36;99663.69;5076270;28;20048;-61
2022/01/02 03:47:31;;;;;;;16.80;7.65;;;;;;;-3.61;67.90;99667.72;5072332;28;20074;-64
2022/01/02 03:50:03;;;;;;;17.75;7.78;;;;;;;-3.38;67.55;99665.00;5074937;28;20083;-65
2022/01/02 03:52:35;;;;;;;24.60;10.40;;;;;;;-3.24;67.41;99663.72;5075710;28;20287;-63
2022/01/02 03:55:07;;;;;;;16.98;6.45;;;;;;;-3.21;67.61;99663.81;5075580;28;20235;-63
2022/01/02 03:57:38;;;;;;;20.80;8.05;;;;;;;-3.16;67.77;99651.16;5075638;28;20076;-62
2022/01/02 04:00:12;;;;;;;18.55;7.70;;;;;;;-3.04;67.91;99639.59;5075570;28;20122;-61
2022/01/02 04:02:43;;;;;;;17.85;7.50;;;;;;;-2.97;67.81;99642.31;5075516;28;20111;-62
2022/01/02 04:05:15;;;;;;;18.52;7.80;;;;;;;-3.06;67.87;99637.81;5075705;28;20124;-63
2022/01/02 04:07:48;;;;;;;25.40;8.82;;;;;;;-3.13;68.33;99634.22;5075463;28;20049;-62
2022/01/02 04:10:20;;;;;;;21.23;8.20;;;;;;;-3.26;68.59;99593.81;5074980;28;20076;-63
2022/01/02 04:12:50;;;;;;;22.38;8.35;;;;;;;-3.10;68.46;99616.41;5059442;28;20059;-62
2022/01/02 04:15:21;;;;;;;18.80;8.35;;;;;;;-3.26;68.58;99634.69;5078870;28;20051;-62
2022/01/02 04:17:52;;;;;;;22.10;8.23;;;;;;;-3.54;69.04;99623.69;5074934;28;20725;-63
2022/01/02 04:20:23;;;;;;;17.98;8.05;;;;;;;-3.70;69.36;99624.03;5075032;28;20075;-63
2022/01/02 04:22:55;;;;;;;18.38;7.82;;;;;;;-3.94;69.85;99596.94;5075107;28;20075;-64
2022/01/02 04:25:26;;;;;;;18.70;8.95;;;;;;;-3.98;70.09;99605.31;5075167;28;20064;-62
2022/01/02 04:27:57;;;;;;;36.28;15.85;;;;;;;-4.08;70.33;99582.03;5075160;28;20053;-62
2022/01/02 04:30:27;;;;;;;17.35;8.65;;;;;;;-4.08;70.63;99603.28;5075369;28;20084;-63
2022/01/02 04:32:58;;;;;;;16.70;8.00;;;;;;;-4.15;71.22;99570.75;5074825;28;20060;-64
2022/01/02 04:35:29;;;;;;;22.48;8.55;;;;;;;-4.05;71.18;99598.28;5075286;28;20056;-62
2022/01/02 04:38:01;;;;;;;18.95;8.35;;;;;;;-4.08;71.23;99589.69;5075074;28;20052;-64
2022/01/02 04:40:32;;;;;;;22.33;9.45;;;;;;;-4.40;71.27;99549.56;5075311;28;20071;-64
2022/01/02 04:43:03;;;;;;;22.55;8.90;;;;;;;-4.17;71.64;99597.88;5075304;28;20060;-64
2022/01/02 04:45:34;;;;;;;24.23;9.48;;;;;;;-4.30;71.90;99600.88;5074513;28;20052;-62
2022/01/02 04:48:05;;;;;;;38.15;14.50;;;;;;;-4.49;72.27;99574.78;5074841;28;20048;-65
2022/01/02 04:50:35;;;;;;;27.05;10.80;;;;;;;-4.50;72.76;99582.38;5074462;28;20067;-63
2022/01/02 04:53:08;;;;;;;26.95;10.60;;;;;;;-4.73;73.15;99551.03;5074594;28;20052;-63
2022/01/02 04:55:39;;;;;;;22.50;9.95;;;;;;;-4.56;73.59;99588.16;5074927;28;20327;-66
2022/01/02 04:58:09;;;;;;;24.05;11.20;;;;;;;-4.62;74.07;99587.94;5074417;28;20048;-62
2022/01/02 05:00:40;;;;;;;24.92;10.40;;;;;;;-4.70;74.68;99586.81;5074657;28;20055;-62
2022/01/02 05:03:11;;;;;;;20.67;9.90;;;;;;;-4.72;75.14;99585.88;5074233;28;20060;-63
2022/01/02 05:05:42;;;;;;;19.60;9.48;;;;;;;-4.70;75.41;99568.97;5074255;28;20052;-62
2022/01/02 05:08:14;;;;;;;21.08;10.23;;;;;;;-4.66;75.51;99570.81;5074254;28;20050;-62
2022/01/02 05:10:45;;;;;;;22.95;11.13;;;;;;;-4.80;75.69;99543.16;5074458;28;20054;-64
2022/01/02 05:13:16;;;;;;;20.15;10.75;;;;;;;-4.61;76.13;99564.19;5073664;28;20258;-63
2022/01/02 05:15:48;;;;;;;24.58;9.98;;;;;;;-4.60;76.25;99553.16;5074245;28;20040;-62
2022/01/02 05:18:18;;;;;;;23.55;11.05;;;;;;;-4.63;76.33;99545.41;5074190;28;20091;-63
2022/01/02 05:20:49;;;;;;;28.17;9.77;;;;;;;-4.66;76.64;99530.03;5074383;28;20052;-63
2022/01/02 05:23:22;;;;;;;23.77;8.65;;;;;;;-4.60;76.69;99525.97;5074013;28;20048;-63
2022/01/02 05:25:53;;;;;;;23.52;10.07;;;;;;;-4.51;76.78;99530.53;5074077;28;20048;-61
2022/01/02 05:28:24;;;;;;;22.48;9.63;;;;;;;-4.52;76.99;99520.25;5073924;28;20084;-63
2022/01/02 05:30:55;;;;;;;27.05;9.18;;;;;;;-4.45;76.76;99515.41;5073986;28;20124;-63
2022/01/02 05:33:26;;;;;;;24.90;10.15;;;;;;;-4.42;76.75;99515.53;5074004;28;20056;-64
2022/01/02 05:35:57;;;;;;;19.75;10.05;;;;;;;-4.38;77.01;99491.81;5073816;28;20044;-63
2022/01/02 05:38:29;;;;;;;24.63;10.88;;;;;;;-4.34;76.63;99483.47;5074082;28;20060;-62
2022/01/02 05:41:00;;;;;;;24.65;10.52;;;;;;;-4.39;77.05;99469.69;5073978;28;20060;-64
2022/01/02 05:43:30;;;;;;;28.75;10.25;;;;;;;-4.51;76.82;99464.22;5074080;28;20091;-64
2022/01/02 05:46:05;;;;;;;31.23;10.50;;;;;;;-4.61;77.01;99457.13;5072945;28;20079;-62
2022/01/02 05:48:36;;;;;;;27.10;10.48;;;;;;;-4.76;77.05;99452.41;5074153;28;20095;-62
2022/01/02 05:51:07;;;;;;;22.85;10.38;;;;;;;-5.06;77.43;99403.88;5073752;28;20299;-64
2022/01/02 05:53:40;;;;;;;24.52;11.02;;;;;;;-5.17;77.33;99412.84;5071759;28;20123;-61
2022/01/02 05:56:11;;;;;;;23.20;10.50;;;;;;;-5.09;77.29;99447.94;5072719;28;20993;-63
2022/01/02 05:58:41;;;;;;;22.15;10.32;;;;;;;-5.14;77.22;99458.78;5072469;28;20052;-65
2022/01/02 06:01:12;;;;;;;29.02;10.85;;;;;;;-5.22;77.22;99451.78;5073520;28;20052;-61
2022/01/02 06:03:43;;;;;;;25.30;10.25;;;;;;;-5.29;77.60;99452.38;5073448;28;20320;-63
2022/01/02 06:06:14;;;;;;;25.10;10.02;;;;;;;-5.35;77.92;99462.34;5073170;28;20083;-63
2022/01/02 06:08:46;;;;;;;19.92;9.70;;;;;;;-5.48;78.47;99458.50;5073185;28;20519;-61
2022/01/02 06:11:17;;;;;;;22.13;9.07;;;;;;;-5.43;78.42;99471.41;5073349;28;20064;-63
2022/01/02 06:13:47;;;;;;;24.02;9.25;;;;;;;-5.48;78.66;99485.66;5073520;28;20055;-62
2022/01/02 06:16:18;;;;;;;22.13;9.43;;;;;;;-5.49;79.06;99471.16;5073412;28;20114;-61
2022/01/02 06:18:51;;;;;;;28.50;11.02;;;;;;;-5.52;79.64;99471.06;5073126;28;20048;-60
2022/01/02 06:21:22;;;;;;;24.00;11.07;;;;;;;-5.49;79.87;99466.97;5072908;28;20091;-62
2022/01/02 06:23:54;;;;;;;21.50;9.35;;;;;;;-5.45;80.42;99463.69;5072782;28;20325;-64
2022/01/02 06:26:25;;;;;;;25.10;9.75;;;;;;;-5.46;80.38;99448.38;5073290;28;20052;-62
2022/01/02 06:28:55;;;;;;;20.13;9.05;;;;;;;-5.45;81.13;99442.47;5073278;28;20080;-62
2022/01/02 06:31:26;;;;;;;18.85;8.00;;;;;;;-5.40;80.94;99435.84;5073197;28;20060;-61
2022/01/02 06:33:57;;;;;;;29.00;8.18;;;;;;;-5.40;81.31;99440.94;5073071;28;20059;-62
2022/01/02 06:36:28;;;;;;;28.13;9.68;;;;;;;-5.49;81.57;99420.25;5072731;28;20058;-62
2022/01/02 06:39:00;;;;;;;26.55;12.00;;;;;;;-5.42;81.51;99432.38;5073101;28;20064;-63
2022/01/02 06:41:32;;;;;;;31.17;12.82;;;;;;;-5.56;82.05;99409.03;5073155;28;20059;-61
2022/01/02 06:44:03;;;;;;;22.33;9.40;;;;;;;-5.35;82.19;99413.97;5073356;28;20044;-61
2022/01/02 06:46:34;;;;;;;17.80;8.68;;;;;;;-5.28;82.19;99423.53;5073451;28;20050;-61
2022/01/02 06:49:05;;;;;;;31.55;9.30;;;;;;;-5.27;82.24;99422.72;5073393;28;20056;-61
2022/01/02 06:51:50;;;;;;;23.73;9.35;;;;;;;-5.31;82.04;99425.97;5073017;28;20049;-64
2022/01/02 06:54:23;;;;;;;28.58;9.75;;;;;;;-5.44;82.38;99403.47;5072726;28;20060;-61
2022/01/02 06:56:53;;;;;;;23.15;11.68;;;;;;;-5.38;82.67;99406.22;5075621;28;20107;-63
2022/01/02 06:59:24;;;;;;;30.98;14.07;;;;;;;-5.39;82.43;99401.97;5076735;28;20044;-61
2022/01/02 07:01:56;;;;;;;32.58;14.30;;;;;;;-5.37;82.66;99405.41;5075986;28;20124;-60
2022/01/02 07:04:27;;;;;;;49.00;18.73;;;;;;;-5.42;82.82;99392.53;5077070;28;20064;-62
2022/01/02 07:06:57;;;;;;;39.50;15.85;;;;;;;-5.34;82.80;99390.25;5076399;28;20060;-63
2022/01/02 07:09:33;;;;;;;36.80;15.52;;;;;;;-5.33;82.88;99381.78;5076781;28;20056;-61
2022/01/02 07:12:04;;;;;;;28.77;10.75;;;;;;;-5.37;82.89;99385.03;5076599;28;20064;-61
2022/01/02 07:14:35;;;;;;;23.50;9.95;;;;;;;-5.38;83.15;99368.03;5075494;28;20045;-63
2022/01/02 07:17:06;;;;;;;25.80;10.90;;;;;;;-5.33;83.19;99375.81;5074710;28;20049;-64
2022/01/02 07:19:37;;;;;;;25.88;11.02;;;;;;;-5.47;83.30;99358.41;5075465;28;20055;-61
2022/01/02 07:22:08;;;;;;;22.95;10.25;;;;;;;-5.38;83.22;99357.84;5076166;28;21077;-62
2022/01/02 07:24:40;;;;;;;32.00;11.80;;;;;;;-5.39;83.38;99345.94;5076659;28;20147;-62
2022/01/02 07:27:12;;;;;;;26.02;9.43;;;;;;;-5.37;83.86;99334.09;5076347;28;20110;-63
2022/01/02 07:29:42;;;;;;;26.55;10.13;;;;;;;-5.35;83.52;99342.66;5076519;28;20108;-63
2022/01/02 07:32:13;;;;;;;33.15;13.13;;;;;;;-5.32;83.45;99336.81;5075977;28;20119;-62
2022/01/02 07:34:44;;;;;;;30.38;10.98;;;;;;;-5.39;83.62;99320.50;5075600;28;20342;-63
2022/01/02 07:37:15;;;;;;;27.75;11.15;;;;;;;-5.32;83.49;99327.47;5075620;28;20056;-63
2022/01/02 07:39:47;;;;;;;27.02;11.90;;;;;;;-5.24;83.89;99323.50;5075949;28;20044;-61
2022/01/02 07:42:18;;;;;;;24.77;11.75;;;;;;;-5.34;83.82;99308.75;5075911;28;20473;-61
2022/01/02 07:44:49;;;;;;;27.90;11.35;;;;;;;-5.23;83.87;99322.69;5076057;28;20048;-62
2022/01/02 07:47:20;;;;;;;27.85;10.45;;;;;;;-5.21;84.17;99320.19;5076180;28;20040;-63
2022/01/02 07:49:51;;;;;;;21.52;10.35;;;;;;;-5.34;84.11;99293.50;5075835;28;20267;-63
2022/01/02 07:52:22;;;;;;;29.38;10.65;;;;;;;-5.12;83.87;99319.59;5075848;28;20059;-62
2022/01/02 07:54:54;;;;;;;23.77;9.90;;;;;;;-5.18;83.97;99306.69;5072679;28;20076;-63
2022/01/02 07:57:24;;;;;;;20.88;10.27;;;;;;;-5.25;83.90;99298.84;5075939;28;20052;-61
2022/01/02 07:59:55;;;;;;;50.22;19.58;;;;;;;-5.20;84.13;99302.41;5076032;28;20079;-63
2022/01/02 08:02:37;;;;;;;49.78;21.77;;;;;;;-5.22;83.86;99287.88;5075647;28;20052;-63
2022/01/02 08:05:10;;;;;;;34.30;15.75;;;;;;;-5.11;84.01;99288.25;5075476;28;20063;-64
2022/01/02 08:07:42;;;;;;;36.90;15.48;;;;;;;-5.08;83.78;99285.78;5074170;28;20060;-64
2022/01/02 08:10:15;;;;;;;30.02;13.88;;;;;;;-5.96;83.91;99122.78;5075241;28;20177;-64
2022/01/02 08:12:45;;;;;;;29.17;12.05;;;;;;;-5.16;83.58;99257.53;5075310;28;20059;-62
2022/01/02 08:15:16;;;;;;;28.65;13.43;;;;;;;-5.17;83.67;99249.84;5073891;28;20441;-62
2022/01/02 08:17:47;;;;;;;28.63;11.40;;;;;;;-4.99;83.82;99265.69;5074222;28;20116;-62
2022/01/02 08:20:18;;;;;;;26.40;8.88;;;;;;;-4.95;83.99;99259.84;5075340;28;20235;-62
2022/01/02 08:22:48;;;;;;;21.88;8.90;;;;;;;-4.94;84.06;99256.50;5075324;28;20508;-63
2022/01/02 08:25:21;;;;;;;23.45;9.85;;;;;;;-4.93;83.92;99260.75;5074935;28;20052;-62
2022/01/02 08:27:52;;;;;;;21.25;7.40;;;;;;;-4.90;84.11;99260.84;5074447;28;20060;-63
2022/01/02 08:30:22;;;;;;;15.40;5.97;;;;;;;-4.96;84.11;99230.09;5075234;28;20051;-62
2022/01/02 08:32:54;;;;;;;13.75;5.43;;;;;;;-4.85;84.18;99244.00;5075331;28;20058;-61
2022/01/02 08:35:24;;;;;;;14.57;5.88;;;;;;;-4.90;84.42;99225.16;5074742;28;20056;-61
2022/01/02 08:37:55;;;;;;;13.85;5.72;;;;;;;-4.84;83.99;99230.44;5075046;28;20084;-61
2022/01/02 08:40:28;;;;;;;11.50;4.88;;;;;;;-4.78;84.23;99225.50;5075197;28;20347;-63
2022/01/02 08:42:58;;;;;;;17.60;7.07;;;;;;;-4.74;84.19;99225.59;5075200;28;20060;-61
2022/01/02 08:45:29;;;;;;;14.55;5.57;;;;;;;-4.77;84.05;99206.88;5075213;28;20052;-61
2022/01/02 08:48:00;;;;;;;16.67;5.35;;;;;;;-4.72;84.27;99208.66;5075001;28;20046;-61
2022/01/02 08:50:31;;;;;;;20.48;7.60;;;;;;;-4.77;84.21;99201.78;5074949;28;20075;-62
2022/01/02 08:53:02;;;;;;;20.42;9.00;;;;;;;-4.74;84.03;99200.09;5074620;28;20301;-61
2022/01/02 08:55:35;;;;;;;23.55;10.80;;;;;;;-4.78;84.02;99194.94;5073231;28;20968;-62
2022/01/02 08:58:08;;;;;;;18.88;8.25;;;;;;;-4.81;83.80;99183.81;5074718;28;20343;-61
2022/01/02 09:00:39;;;;;;;23.10;8.77;;;;;;;-5.06;83.60;99147.44;5074575;28;20054;-62
2022/01/02 09:03:10;;;;;;;16.83;6.82;;;;;;;-4.82;83.70;99185.50;5074748;28;20071;-63
2022/01/02 09:05:41;;;;;;;18.92;9.15;;;;;;;-4.88;83.61;99169.16;5074750;28;20099;-60
2022/01/02 09:08:12;;;;;;;19.90;8.77;;;;;;;-4.87;83.88;99169.19;5074600;28;20067;-62
2022/01/02 09:10:45;;;;;;;19.35;9.07;;;;;;;-4.92;83.79;99159.69;5074446;28;20471;-64
2022/01/02 09:13:16;;;;;;;22.25;11.38;;;;;;;-4.90;83.54;99158.91;5074296;28;20044;-61
2022/01/02 09:15:46;;;;;;;36.47;15.85;;;;;;;-5.07;83.85;99138.06;5074251;28;20386;-63
2022/01/02 09:18:17;;;;;;;30.08;15.88;;;;;;;-5.07;83.42;99149.94;5074240;28;20106;-61
2022/01/02 09:20:48;;;;;;;26.65;12.93;;;;;;;-5.13;83.55;99143.00;5073622;28;20246;-62
2022/01/02 09:23:19;;;;;;;24.98;11.55;;;;;;;-5.20;83.27;99139.41;5074297;28;20348;-63
2022/01/02 09:25:51;;;;;;;197.30;81.43;;;;;;;-5.29;83.12;99134.06;5073969;28;20052;-62
2022/01/02 09:28:22;;;;;;;84.00;34.90;;;;;;;-5.38;83.28;99128.72;5074310;28;20048;-62
2022/01/02 09:30:52;;;;;;;64.13;31.05;;;;;;;-5.42;83.43;99131.97;5073308;28;20044;-63
2022/01/02 09:33:23;;;;;;;41.60;18.25;;;;;;;-5.43;83.54;99120.06;5074180;28;20072;-62
2022/01/02 09:35:54;;;;;;;34.10;17.00;;;;;;;-5.45;83.54;99121.72;5073892;28;20052;-66
2022/01/02 09:38:25;;;;;;;36.92;16.90;;;;;;;-5.55;83.83;99109.53;5073137;28;20056;-63
2022/01/02 09:40:57;;;;;;;54.22;24.48;;;;;;;-5.54;83.75;99101.06;5073615;28;20119;-63
2022/01/02 09:43:28;;;;;;;65.70;29.33;;;;;;;-5.47;83.75;99113.16;5073508;28;20059;-63
2022/01/02 09:46:02;;;;;;;108.13;41.50;;;;;;;-5.54;84.25;99106.16;5073730;28;20119;-63
2022/01/02 09:48:34;;;;;;;63.78;27.98;;;;;;;-5.55;84.14;99099.34;5073770;28;20309;-63
2022/01/02 09:51:04;;;;;;;56.22;24.85;;;;;;;-5.50;84.10;99092.72;5073684;28;20071;-63
2022/01/02 09:53:35;;;;;;;46.58;20.27;;;;;;;-5.54;84.40;99085.78;5072643;28;20060;-64
2022/01/02 09:56:08;;;;;;;67.78;26.98;;;;;;;-5.63;84.31;99071.13;5073024;28;20091;-64
2022/01/02 09:58:42;;;;;;;68.15;29.02;;;;;;;-5.56;84.27;99075.59;5073435;28;20290;-65
2022/01/02 10:01:17;;;;;;;90.03;36.78;;;;;;;-5.63;84.50;99073.69;5073815;28;20052;-66
2022/01/02 10:03:51;;;;;;;100.70;41.35;;;;;;;-5.68;84.37;99073.56;5073559;28;20106;-65
2022/01/02 10:06:22;;;;;;;83.55;34.97;;;;;;;-5.66;84.50;99064.28;5072845;28;20125;-65
2022/01/02 10:08:53;;;;;;;68.10;29.40;;;;;;;-5.65;84.77;99058.38;5072676;28;20056;-64
2022/01/02 10:11:25;;;;;;;92.38;38.80;;;;;;;-5.64;84.65;99055.00;5073409;28;20072;-66
2022/01/02 10:14:01;;;;;;;89.57;42.88;;;;;;;-5.67;84.41;99039.63;5072047;28;20045;-66
2022/01/02 10:16:33;;;;;;;101.65;40.40;;;;;;;-5.64;84.07;99044.84;5072616;28;20071;-66
2022/01/02 10:19:19;;;;;;;45.55;21.92;;;;;;;-5.64;84.18;99038.88;5073051;28;20386;-65
2022/01/02 10:21:58;;;;;;;48.53;21.30;;;;;;;-5.70;84.50;99029.38;5073078;28;20056;-65
2022/01/02 10:24:30;;;;;;;31.75;16.98;;;;;;;-5.79;84.53;98998.59;5072968;28;20552;-65
2022/01/02 10:27:12;;;;;;;30.35;14.52;;;;;;;-5.58;84.36;99022.94;5071653;28;20067;-65
2022/01/02 10:29:50;;;;;;;31.63;15.90;;;;;;;-5.64;84.48;99037.19;5073222;28;20235;-67
2022/01/02 10:32:28;;;;;;;31.52;14.60;;;;;;;-5.58;84.68;99003.41;5073326;28;20347;-66
2022/01/02 10:35:16;;;;;;;28.45;15.52;;;;;;;-5.45;84.35;99014.78;5072890;28;20147;-65
2022/01/02 10:37:53;;;;;;;28.42;14.20;;;;;;;-5.43;84.43;99013.16;5073032;28;20090;-66
2022/01/02 10:40:29;;;;;;;73.65;31.67;;;;;;;-5.39;84.23;99009.88;5073113;28;20048;-65
2022/01/02 10:43:03;;;;;;;56.45;24.98;;;;;;;-5.60;84.08;98986.38;5073045;28;20060;-66
2022/01/02 10:45:38;;;;;;;35.75;11.93;;;;;;;-5.48;84.36;99002.00;5072940;28;20041;-66
2022/01/02 10:48:12;;;;;;;22.63;11.13;;;;;;;-5.64;84.21;98983.75;5073076;28;20083;-67
2022/01/02 10:51:01;;;;;;;26.40;12.60;;;;;;;-5.76;84.36;98970.69;5073160;28;20048;-66
2022/01/02 10:53:34;;;;;;;23.80;10.98;;;;;;;-5.65;84.70;98987.09;5071408;28;20056;-67
2022/01/02 10:56:06;;;;;;;56.60;21.13;;;;;;;-5.73;85.08;98963.16;5072526;28;20102;-68
2022/01/02 10:58:39;;;;;;;84.65;32.10;;;;;;;-5.52;85.26;98982.34;5073136;28;20343;-65
2022/01/02 11:01:10;;;;;;;78.43;28.27;;;;;;;-5.49;85.05;98977.34;5072667;28;20053;-67
2022/01/02 11:03:44;;;;;;;117.15;36.50;;;;;;;-5.46;85.42;98974.91;5072418;28;20056;-66
2022/01/02 11:06:25;;;;;;;65.78;22.48;;;;;;;-5.60;84.86;98978.75;5072946;28;20436;-66
2022/01/02 11:08:59;;;;;;;74.78;24.75;;;;;;;-5.63;84.96;98974.44;5072388;28;20052;-67
2022/01/02 11:11:30;;;;;;;75.70;26.63;;;;;;;-5.61;85.06;98971.94;5072908;28;20064;-67
2022/01/02 11:14:03;;;;;;;63.35;22.30;;;;;;;-5.68;85.17;98969.22;5072617;28;20060;-68
2022/01/02 11:16:34;;;;;;;36.60;13.35;;;;;;;-5.79;85.18;98957.91;5072893;28;20084;-67
2022/01/02 11:19:05;;;;;;;25.13;10.02;;;;;;;-5.71;85.28;98956.41;5072519;28;20071;-68
2022/01/02 11:21:37;;;;;;;20.83;9.60;;;;;;;-5.83;85.19;98948.44;5072814;28;20087;-68
2022/01/02 11:24:18;;;;;;;20.55;8.88;;;;;;;-5.79;85.40;98952.81;5072794;28;20072;-69
2022/01/02 11:26:57;;;;;;;19.20;9.68;;;;;;;-5.77;85.30;98971.50;5072761;28;20075;-68
2022/01/02 11:29:32;;;;;;;19.20;9.63;;;;;;;-5.81;85.38;98949.34;5072662;28;20063;-68
2022/01/02 11:32:23;;;;;;;21.75;9.27;;;;;;;-5.74;85.46;98956.34;5072666;28;20048;-69
2022/01/02 11:34:55;;;;;;;20.23;7.95;;;;;;;-6.30;85.79;98846.31;5072450;28;20131;-68
2022/01/02 11:37:30;;;;;;;17.98;8.15;;;;;;;-5.65;85.51;98956.56;5072574;28;20067;-69
2022/01/02 11:40:02;;;;;;;20.15;8.25;;;;;;;-5.66;85.60;98943.81;5072770;28;20052;-69
2022/01/02 11:42:48;;;;;;;17.27;8.43;;;;;;;-5.60;85.77;98949.06;5073109;28;20080;-68
2022/01/02 11:45:44;;;;;;;20.77;8.48;;;;;;;-5.60;85.75;98950.75;5076264;28;20087;-69